Oregon Highway — 3ENO7 — position and weather

sailwx.info

Track history (hours):
 
Tides and Currents Weather Stations Pressure Air Temp Water Temp Dewpoint Dewpoint Depression Visibility Wind Speed Wind Dir Waves Ship Positions

Oregon Highway

Last reported at 2018-Jan-19 18:36 UTC. Time now 2018-Jan-22 07:57 UTC.
Position N 25°27' W 079°37'.

Length 199 m; draft 8.8 m.

Type: Ship. MMSI: 352929000.

Date/timePositionNaut miles runAvg speedWind from/ knotsBaromVisibWave heightAir tempDewpointWater temp
2018-Jan-19 18:36N 25°27' W 079°37'215.4
2018-Jan-19 18:29N 25°29' W 079°36'715.4
2018-Jan-19 18:00N 25°36' W 079°35'815.3
2018-Jan-19 17:30N 25°44' W 079°34'815.2
2018-Jan-19 17:00N 25°51' W 079°33'815.4
2018-Jan-19 16:30N 25°59' W 079°31'815.8
2018-Jan-19 16:00N 26°07' W 079°30'815.8
2018-Jan-19 15:30N 26°15' W 079°29'  
2018-Jan-10 21:18N 34°32' W 024°45'  
Track history (hours):
 
Tides and Currents Weather Stations Pressure Air Temp Water Temp Dewpoint Dewpoint Depression Visibility Wind Speed Wind Dir Waves Ship Positions

Oregon Highway

Last reported at 2018-Jan-19 18:36 UTC. Time now 2018-Jan-22 07:57 UTC.
Position N 25°27' W 079°37'.

Length 199 m; draft 8.8 m.

Type: Ship. MMSI: 352929000.

Date/timePositionNaut miles runAvg speedWind from/ knotsBaromVisibWave heightAir tempDewpointWater temp
2018-Jan-19 18:36N 25°27' W 079°37'215.4
2018-Jan-19 18:29N 25°29' W 079°36'715.4
2018-Jan-19 18:00N 25°36' W 079°35'815.3
2018-Jan-19 17:30N 25°44' W 079°34'815.2
2018-Jan-19 17:00N 25°51' W 079°33'815.4
2018-Jan-19 16:30N 25°59' W 079°31'815.8
2018-Jan-19 16:00N 26°07' W 079°30'815.8
2018-Jan-19 15:30N 26°15' W 079°29'  
2018-Jan-10 21:18N 34°32' W 024°45'  

Dump ship's entire track history